Saint Columbans, Nebraska
Current Conditions -  °F | °C
As of 5:58 PM on Friday 24 Oct 2014 (Local Time) from KOFF Reporting Station
Clear Clear  
Wind Chill: 72°   Ceiling: Unl
Heat Index: 72°   Visibility: 10mi
Dew Point: 63°   Wind: 3mph
Humidity: 71%   Direction: 260°W
Pressure: 29.9"   Gusts: NA
Location:  41.1°N, 95.87°W
Report Text: KOFF 242258Z AUTO 26003KT 10SM CLR 22/17 A2990 RMK AO2 SLP125 T02240170
Loading
Personal Weather Stations






























Interactive Weather Map
Tropical Storm Tracking
New forecast layout! Learn more

10-Day Weather Forecast

Advertisements
Track Severe Weather on mobile